createdAt,value
2023-05-08T00:00:36.923Z,102080.69
2023-05-08T00:03:03.385Z,102076.16
2023-05-08T00:05:29.706Z,102069.94
2023-05-08T00:07:56.063Z,102079.03
2023-05-08T00:10:22.507Z,102068.28
2023-05-08T00:12:48.926Z,102076.97
2023-05-08T00:15:15.201Z,102078.00
2023-05-08T00:17:41.463Z,102081.72
2023-05-08T00:20:07.777Z,102069.09
2023-05-08T00:22:34.000Z,102076.34
2023-05-08T00:25:00.235Z,102077.44
2023-05-08T00:27:26.457Z,102070.13
2023-05-08T00:29:52.694Z,102067.25
2023-05-08T00:32:19.038Z,102064.75
2023-05-08T00:34:45.395Z,102071.59
2023-05-08T00:37:11.665Z,102075.69
2023-05-08T00:39:37.897Z,102074.88
2023-05-08T00:42:04.124Z,102060.41
2023-05-08T00:44:30.342Z,102074.88
2023-05-08T00:46:56.638Z,102064.31
2023-05-08T00:49:22.948Z,102071.34
2023-05-08T00:51:49.238Z,102069.69
2023-05-08T00:54:15.661Z,102071.53
2023-05-08T00:56:41.921Z,102073.22
2023-05-08T00:59:08.153Z,102074.03
2023-05-08T01:01:34.429Z,102065.53
2023-05-08T01:04:00.906Z,102079.78
2023-05-08T01:06:27.370Z,102079.78
2023-05-08T01:08:53.686Z,102079.22
2023-05-08T01:11:20.069Z,102080.63
2023-05-08T01:13:46.311Z,102075.44
2023-05-08T01:16:12.617Z,102075.06
2023-05-08T01:18:38.887Z,102087.47
2023-05-08T01:21:05.242Z,102083.97
2023-05-08T01:23:31.544Z,102080.81
2023-05-08T01:25:57.793Z,102086.19
2023-05-08T01:28:24.055Z,102086.00
2023-05-08T01:30:50.301Z,102080.44
2023-05-08T01:33:16.609Z,102091.38
2023-05-08T01:35:42.952Z,102092.84
2023-05-08T01:38:09.237Z,102090.75
2023-05-08T01:40:35.615Z,102094.72
2023-05-08T01:43:01.946Z,102092.84
2023-05-08T01:45:28.227Z,102088.06
2023-05-08T01:47:54.496Z,102087.66
2023-05-08T01:50:20.882Z,102094.06
2023-05-08T01:52:47.149Z,102097.41
2023-05-08T01:55:13.351Z,102100.47
2023-05-08T01:57:39.616Z,102100.84
2023-05-08T02:00:05.844Z,102104.63
2023-05-08T02:02:32.396Z,102099.25
2023-05-08T02:04:58.716Z,102097.97
2023-05-08T02:07:25.014Z,102096.94
2023-05-08T02:09:51.616Z,102094.25
2023-05-08T02:12:17.935Z,102103.16
2023-05-08T02:14:44.196Z,102105.84
2023-05-08T02:17:10.429Z,102101.28
2023-05-08T02:19:36.657Z,102099.81
2023-05-08T02:22:02.893Z,102102.50
2023-05-08T02:24:29.143Z,102102.31
2023-05-08T02:26:55.387Z,102097.97
2023-05-08T02:29:21.710Z,102095.72
2023-05-08T02:31:48.107Z,102103.59
2023-05-08T02:34:14.382Z,102099.81
2023-05-08T02:36:40.845Z,102095.47
2023-05-08T02:39:07.103Z,102097.41
2023-05-08T02:41:33.325Z,102097.34
2023-05-08T02:43:59.567Z,102089.06
2023-05-08T02:46:25.821Z,102085.56
2023-05-08T02:48:52.081Z,102088.44
2023-05-08T02:51:18.323Z,102091.31
2023-05-08T02:53:44.628Z,102086.59
2023-05-08T02:56:10.880Z,102087.59
2023-05-08T02:58:37.153Z,102083.91
2023-05-08T03:01:03.478Z,102085.75
2023-05-08T03:03:29.824Z,102088.06
2023-05-08T03:05:56.135Z,102087.22
2023-05-08T03:08:22.458Z,102096.31
2023-05-08T03:10:48.974Z,102088.25
2023-05-08T03:13:15.461Z,102091.13
2023-05-08T03:15:41.813Z,102086.78
2023-05-08T03:18:08.161Z,102093.16
2023-05-08T03:20:34.752Z,102092.59
2023-05-08T03:23:01.018Z,102096.50
2023-05-08T03:25:27.281Z,102091.13
2023-05-08T03:27:53.550Z,102099.63
2023-05-08T03:30:19.810Z,102104.94
2023-05-08T03:32:46.035Z,102102.06
2023-05-08T03:35:12.305Z,102104.94
2023-05-08T03:37:38.872Z,102102.44
2023-05-08T03:40:05.314Z,102107.00
2023-05-08T03:42:31.580Z,102112.38
2023-05-08T03:44:57.876Z,102113.19
2023-05-08T03:47:24.145Z,102114.66
2023-05-08T03:49:50.408Z,102121.06
2023-05-08T03:52:16.683Z,102119.78
2023-05-08T03:54:42.949Z,102113.19
2023-05-08T03:57:09.185Z,102127.28
2023-05-08T03:59:35.638Z,102121.91
2023-05-08T04:02:02.497Z,102116.91
2023-05-08T04:04:28.783Z,102116.53
2023-05-08T04:06:55.016Z,102127.03
2023-05-08T04:09:21.228Z,102123.94
2023-05-08T04:11:47.460Z,102123.31
2023-05-08T04:14:13.689Z,102135.28
2023-05-08T04:16:40.073Z,102134.25
2023-05-08T04:19:06.408Z,102137.56
2023-05-08T04:21:32.859Z,102139.81
2023-05-08T04:23:59.126Z,102138.34
2023-05-08T04:26:25.472Z,102139.00
2023-05-08T04:28:51.734Z,102143.97
2023-05-08T04:31:18.190Z,102146.22
2023-05-08T04:33:44.505Z,102150.56
2023-05-08T04:36:10.752Z,102149.09
2023-05-08T04:38:37.137Z,102158.63
2023-05-08T04:41:03.423Z,102162.34
2023-05-08T04:43:29.687Z,102165.19
2023-05-08T04:45:56.565Z,102163.53
2023-05-08T04:48:22.842Z,102169.09
2023-05-08T04:50:49.129Z,102175.09
2023-05-08T04:53:15.352Z,102184.66
2023-05-08T04:55:41.778Z,102190.22
2023-05-08T04:58:07.997Z,102179.84
2023-05-08T05:00:34.231Z,102187.91
2023-05-08T05:03:00.507Z,102188.09
2023-05-08T05:05:26.860Z,102187.06
2023-05-08T05:07:53.095Z,102178.00
2023-05-08T05:10:19.437Z,102180.69
2023-05-08T05:12:45.717Z,102188.94
2023-05-08T05:15:12.205Z,102185.41
2023-05-08T05:17:38.688Z,102184.56
2023-05-08T05:20:05.182Z,102192.06
2023-05-08T05:22:31.504Z,102192.44
2023-05-08T05:24:57.776Z,102191.22
2023-05-08T05:27:24.040Z,102189.38
2023-05-08T05:29:50.269Z,102198.66
2023-05-08T05:32:16.642Z,102197.00
2023-05-08T05:34:42.915Z,102193.09
2023-05-08T05:37:09.180Z,102193.53
2023-05-08T05:39:35.452Z,102197.81
2023-05-08T05:42:01.708Z,102200.69
2023-05-08T05:44:28.014Z,102199.88
2023-05-08T05:46:54.319Z,102201.09
2023-05-08T05:49:20.622Z,102196.34
2023-05-08T05:51:46.873Z,102194.69
2023-05-08T05:54:13.289Z,102197.38
2023-05-08T05:56:39.640Z,102200.69
2023-05-08T05:59:05.965Z,102202.38
2023-05-08T06:01:32.224Z,102202.13
2023-05-08T06:03:58.533Z,102202.13
2023-05-08T06:06:24.841Z,102203.59
2023-05-08T06:08:51.084Z,102208.13
2023-05-08T06:11:17.834Z,102212.28
2023-05-08T06:13:44.152Z,102214.97
2023-05-08T06:16:10.428Z,102212.47
2023-05-08T06:18:36.762Z,102209.78
2023-05-08T06:21:03.102Z,102220.91
2023-05-08T06:23:29.360Z,102218.84
2023-05-08T06:25:55.602Z,102211.84
2023-05-08T06:28:21.846Z,102211.84
2023-05-08T06:30:48.188Z,102208.97
2023-05-08T06:33:14.556Z,102209.78
2023-05-08T06:35:40.903Z,102217.56
2023-05-08T06:38:07.188Z,102206.28
2023-05-08T06:40:33.541Z,102204.81
2023-05-08T06:42:59.839Z,102213.66
2023-05-08T06:48:16.502Z,102204.28
2023-05-08T06:50:42.793Z,102212.34
2023-05-08T06:53:09.259Z,102215.53
2023-05-08T06:55:35.584Z,102216.34
2023-05-08T06:58:01.821Z,102208.47
2023-05-08T07:00:28.041Z,102205.31
2023-05-08T07:02:54.457Z,102211.53
2023-05-08T07:05:20.824Z,102211.84
2023-05-08T07:07:47.168Z,102211.84
2023-05-08T07:10:13.506Z,102219.22
2023-05-08T07:12:39.877Z,102209.31
2023-05-08T07:15:17.830Z,102218.00
2023-05-08T07:17:52.469Z,102213.03
2023-05-08T07:20:18.758Z,102215.53
2023-05-08T07:22:44.970Z,102212.00
2023-05-08T07:25:11.297Z,102207.47
2023-05-08T07:27:37.871Z,102223.09
2023-05-08T07:30:04.106Z,102217.38
2023-05-08T07:32:30.428Z,102217.56
2023-05-08T07:34:56.714Z,102208.66
2023-05-08T07:37:23.150Z,102221.72
2023-05-08T07:39:49.515Z,102219.41
2023-05-08T07:42:15.782Z,102211.34
2023-05-08T07:44:53.750Z,102216.34
2023-05-08T07:47:21.412Z,102229.97
2023-05-08T07:49:47.769Z,102216.34
2023-05-08T07:52:14.022Z,102204.97
2023-05-08T07:54:40.286Z,102198.09
2023-05-08T07:57:06.506Z,102208.47
2023-05-08T07:59:32.729Z,102201.59
2023-05-08T08:01:59.012Z,102204.97
2023-05-08T08:04:25.319Z,102205.16
2023-05-08T08:06:51.651Z,102213.84
2023-05-08T08:09:17.923Z,102214.88
2023-05-08T08:11:44.179Z,102211.84
2023-05-08T08:14:10.755Z,102206.81
2023-05-08T08:16:36.990Z,102215.91
2023-05-08T08:19:03.285Z,102206.63
2023-05-08T08:21:29.549Z,102218.22
2023-05-08T08:23:55.808Z,102210.34
2023-05-08T08:26:22.123Z,102206.63
2023-05-08T08:28:48.371Z,102211.84
2023-05-08T08:31:14.616Z,102211.16
2023-05-08T08:33:40.899Z,102204.97
2023-05-08T08:36:07.141Z,102208.13
2023-05-08T08:38:33.534Z,102206.63
2023-05-08T08:40:59.769Z,102211.16
2023-05-08T08:43:25.989Z,102210.81
2023-05-08T08:45:52.564Z,102206.63
2023-05-08T08:48:18.925Z,102214.69
2023-05-08T08:50:45.140Z,102208.47
2023-05-08T08:53:11.420Z,102205.97
2023-05-08T08:55:37.681Z,102214.69
2023-05-08T08:58:03.945Z,102212.63
2023-05-08T09:00:30.242Z,102210.16
2023-05-08T09:02:56.633Z,102204.41
2023-05-08T09:05:23.142Z,102198.41
2023-05-08T09:07:49.382Z,102204.81
2023-05-08T09:10:15.648Z,102199.63
2023-05-08T09:12:42.131Z,102198.59
2023-05-08T09:15:08.565Z,102204.59
2023-05-08T09:17:34.884Z,102196.34
2023-05-08T09:20:01.172Z,102191.16
2023-05-08T09:22:27.409Z,102194.06
2023-05-08T09:24:53.788Z,102202.75
2023-05-08T09:27:20.009Z,102208.13
2023-05-08T09:29:46.304Z,102193.84
2023-05-08T09:32:12.833Z,102191.81
2023-05-08T09:34:39.184Z,102193.47
2023-05-08T09:37:05.478Z,102174.03
2023-05-08T09:39:31.752Z,102183.94
2023-05-08T09:41:58.139Z,102185.78
2023-05-08T09:44:24.405Z,102186.63
2023-05-08T09:46:50.671Z,102191.16
2023-05-08T09:49:16.911Z,102182.09
2023-05-08T09:51:43.173Z,102190.34
2023-05-08T09:54:09.510Z,102178.56
2023-05-08T09:56:35.809Z,102179.41
2023-05-08T09:59:02.095Z,102186.63
2023-05-08T10:01:28.570Z,102175.88
2023-05-08T10:03:54.939Z,102173.19
2023-05-08T10:06:21.226Z,102169.47
2023-05-08T10:08:47.716Z,102170.50
2023-05-08T10:11:14.033Z,102164.28
2023-05-08T10:13:40.261Z,102171.72
2023-05-08T10:16:06.499Z,102168.84
2023-05-08T10:18:32.730Z,102164.28
2023-05-08T10:20:58.957Z,102167.81
2023-05-08T10:23:25.199Z,102163.28
2023-05-08T10:25:52.758Z,102158.28
2023-05-08T10:28:20.451Z,102157.91
2023-05-08T10:30:46.702Z,102155.41
2023-05-08T10:33:12.996Z,102146.50
2023-05-08T10:35:39.384Z,102141.97
2023-05-08T10:38:05.622Z,102149.19
2023-05-08T10:40:31.958Z,102141.97
2023-05-08T10:42:58.368Z,102141.13
2023-05-08T10:45:24.601Z,102150.03
2023-05-08T10:47:50.996Z,102136.63
2023-05-08T10:50:17.322Z,102137.25
2023-05-08T10:52:43.632Z,102144.16
2023-05-08T10:55:09.917Z,102144.94
2023-05-08T10:57:36.243Z,102141.41
2023-05-08T11:00:02.469Z,102128.44
2023-05-08T11:02:28.842Z,102121.53
2023-05-08T11:04:55.190Z,102113.19
2023-05-08T11:07:21.466Z,102110.25
2023-05-08T11:09:47.817Z,102121.38
2023-05-08T11:12:14.334Z,102122.59
2023-05-08T11:14:40.726Z,102113.91
2023-05-08T11:17:07.066Z,102121.78
2023-05-08T11:19:33.312Z,102111.41
2023-05-08T11:21:59.653Z,102120.09
2023-05-08T11:24:25.924Z,102112.25
2023-05-08T11:26:52.354Z,102116.41
2023-05-08T11:29:18.607Z,102108.97
2023-05-08T11:31:44.882Z,102102.56
2023-05-08T11:34:11.167Z,102101.94
2023-05-08T11:36:37.441Z,102093.69
2023-05-08T11:39:03.919Z,102096.75
2023-05-08T11:41:30.167Z,102088.69
2023-05-08T11:43:56.490Z,102092.03
2023-05-08T11:46:23.105Z,102097.41
2023-05-08T11:48:49.327Z,102088.31
2023-05-08T11:51:15.643Z,102093.50
2023-05-08T11:53:41.899Z,102091.63
2023-05-08T11:56:08.173Z,102088.56
2023-05-08T11:58:34.458Z,102089.59
2023-05-08T12:01:00.761Z,102080.88
2023-05-08T12:03:27.275Z,102085.03
2023-05-08T12:05:53.635Z,102084.22
2023-05-08T12:08:20.021Z,102096.44
2023-05-08T12:10:46.899Z,102091.69
2023-05-08T12:13:13.289Z,102088.81
2023-05-08T12:15:39.586Z,102089.19
2023-05-08T12:18:05.960Z,102087.34
2023-05-08T12:20:33.826Z,102083.06
2023-05-08T12:23:00.221Z,102077.75
2023-05-08T12:25:26.535Z,102084.03
2023-05-08T12:27:52.852Z,102085.56
2023-05-08T12:30:19.454Z,102085.41
2023-05-08T12:32:45.896Z,102073.28
2023-05-08T12:35:12.197Z,102086.38
2023-05-08T12:37:38.485Z,102094.94
2023-05-08T12:40:04.739Z,102075.97
2023-05-08T12:42:31.002Z,102068.75
2023-05-08T12:44:57.216Z,102071.31
2023-05-08T12:47:23.535Z,102080.88
2023-05-08T12:49:49.896Z,102073.66
2023-05-08T12:52:16.139Z,102071.00
2023-05-08T12:54:42.474Z,102074.78
2023-05-08T12:57:08.776Z,102064.84
2023-05-08T12:59:35.135Z,102074.44
2023-05-08T13:02:01.450Z,102071.94
2023-05-08T13:04:27.840Z,102072.78
2023-05-08T13:06:54.143Z,102068.25
2023-05-08T13:09:20.359Z,102073.88
2023-05-08T13:11:46.602Z,102072.03
2023-05-08T13:14:12.878Z,102060.03
2023-05-08T13:16:40.253Z,102056.53
2023-05-08T13:19:06.596Z,102054.69
2023-05-08T13:21:32.919Z,102060.91
2023-05-08T13:23:59.156Z,102057.38
2023-05-08T13:26:25.427Z,102050.53
2023-05-08T13:28:52.965Z,102046.00
2023-05-08T13:31:22.081Z,102047.25
2023-05-08T13:33:48.381Z,102044.34
2023-05-08T13:36:14.599Z,102051.59
2023-05-08T13:38:40.981Z,102044.53
2023-05-08T13:41:07.280Z,102042.25
2023-05-08T13:43:33.549Z,102035.19
2023-05-08T13:46:00.296Z,102038.72
2023-05-08T13:48:26.613Z,102037.69
2023-05-08T13:50:52.846Z,102036.63
2023-05-08T13:53:19.113Z,102023.34
2023-05-08T13:55:45.393Z,102020.03
2023-05-08T13:58:11.839Z,102017.94
2023-05-08T14:00:38.174Z,102021.88
2023-05-08T14:03:04.523Z,102016.06
2023-05-08T14:05:30.841Z,102015.84
2023-05-08T14:07:57.078Z,102018.09
2023-05-08T14:10:23.341Z,102010.69
2023-05-08T14:12:49.721Z,102014.19
2023-05-08T14:15:16.238Z,102012.72
2023-05-08T14:17:42.681Z,102015.03
2023-05-08T14:20:11.600Z,102005.69
2023-05-08T14:22:38.239Z,101998.81
2023-05-08T14:25:04.512Z,102006.91
2023-05-08T14:27:31.910Z,101999.47
2023-05-08T14:29:58.182Z,101998.22
2023-05-08T14:32:24.493Z,101993.25
2023-05-08T14:34:50.808Z,101983.28
2023-05-08T14:37:17.040Z,101998.25
2023-05-08T14:39:43.588Z,101987.69
2023-05-08T14:44:39.422Z,101976.69
2023-05-08T14:47:05.704Z,101972.53
2023-05-08T14:52:18.211Z,101973.59
2023-05-08T14:54:44.942Z,101973.78
2023-05-08T14:57:11.488Z,101976.94
2023-05-08T14:59:39.964Z,101970.91
2023-05-08T15:02:12.319Z,101974.66
2023-05-08T15:04:38.637Z,101973.41
2023-05-08T15:07:04.878Z,101974.44
2023-05-08T15:09:31.121Z,101969.06
2023-05-08T15:11:57.356Z,101965.72
2023-05-08T15:14:23.582Z,101959.53
2023-05-08T15:16:49.940Z,101955.97
2023-05-08T15:19:16.225Z,101950.59
2023-05-08T15:21:42.471Z,101957.84
2023-05-08T15:24:08.750Z,101958.28
2023-05-08T15:26:35.003Z,101960.97
2023-05-08T15:29:01.346Z,101949.34
2023-05-08T15:31:27.806Z,101958.47
2023-05-08T15:33:54.090Z,101947.06
2023-05-08T15:36:20.307Z,101954.13
2023-05-08T15:38:46.564Z,101949.75
2023-05-08T15:41:15.126Z,101942.72
2023-05-08T15:43:41.846Z,101959.94
2023-05-08T15:46:08.246Z,101953.09
2023-05-08T15:48:34.634Z,101947.72
2023-05-08T15:51:00.865Z,101953.09
2023-05-08T15:53:27.114Z,101948.53
2023-05-08T15:55:53.439Z,101947.72
2023-05-08T15:58:19.738Z,101949.56
2023-05-08T16:00:46.149Z,101954.97
2023-05-08T16:03:12.533Z,101941.69
2023-05-08T16:05:38.859Z,101949.97
2023-05-08T16:08:05.090Z,101941.88
2023-05-08T16:10:31.341Z,101936.50
2023-05-08T16:12:57.628Z,101930.09
2023-05-08T16:15:23.880Z,101932.16
2023-05-08T16:17:50.259Z,101933.19
2023-05-08T16:20:16.514Z,101927.81
2023-05-08T16:22:42.790Z,101928.41
2023-05-08T16:25:09.408Z,101924.06
2023-05-08T16:27:35.675Z,101930.28
2023-05-08T16:30:02.124Z,101924.91
2023-05-08T16:32:28.515Z,101931.94
2023-05-08T16:34:54.873Z,101922.81
2023-05-08T16:37:21.235Z,101931.09
2023-05-08T16:39:47.471Z,101936.28
2023-05-08T16:42:13.804Z,101936.28
2023-05-08T16:44:40.134Z,101937.97
2023-05-08T16:47:06.525Z,101939.63
2023-05-08T16:49:32.939Z,101931.94
2023-05-08T16:51:59.195Z,101935.47
2023-05-08T16:54:25.603Z,101929.25
2023-05-08T16:56:52.181Z,101934.63
2023-05-08T16:59:18.550Z,101940.66
2023-05-08T17:01:44.925Z,101937.53
2023-05-08T17:04:11.187Z,101934.22
2023-05-08T17:06:37.404Z,101936.09
2023-05-08T17:09:03.778Z,101934.44
2023-05-08T17:11:30.054Z,101937.34
2023-05-08T17:13:56.274Z,101937.53
2023-05-08T17:16:22.618Z,101936.50
2023-05-08T17:18:49.014Z,101940.25
2023-05-08T17:21:15.403Z,101938.78
2023-05-08T17:23:42.596Z,101934.44
2023-05-08T17:26:08.869Z,101936.09
2023-05-08T17:28:35.585Z,101939.00
2023-05-08T17:31:01.910Z,101939.19
2023-05-08T17:33:28.410Z,101940.25
2023-05-08T17:35:54.822Z,101934.03
2023-05-08T17:38:21.086Z,101942.34
2023-05-08T17:40:47.329Z,101942.13
2023-05-08T17:43:13.591Z,101950.63
2023-05-08T17:45:39.906Z,101952.47
2023-05-08T17:48:06.249Z,101957.88
2023-05-08T17:50:32.505Z,101945.44
2023-05-08T17:52:58.723Z,101959.75
2023-05-08T17:55:24.994Z,101956.41
2023-05-08T17:57:51.199Z,101968.84
2023-05-08T18:00:17.448Z,101960.97
2023-05-08T18:02:44.002Z,101969.28
2023-05-08T18:05:10.366Z,101965.13
2023-05-08T18:07:36.678Z,101956.81
2023-05-08T18:10:03.029Z,101968.03
2023-05-08T18:12:29.359Z,101980.25
2023-05-08T18:14:55.593Z,101977.78
2023-05-08T18:17:21.936Z,101978.97
2023-05-08T18:19:48.210Z,101978.97
2023-05-08T18:22:14.496Z,101980.03
2023-05-08T18:24:40.758Z,101980.03
2023-05-08T18:27:07.220Z,101980.22
2023-05-08T18:29:33.479Z,101979.38
2023-05-08T18:31:59.766Z,101979.59
2023-05-08T18:34:26.034Z,101983.31
2023-05-08T18:36:52.280Z,101990.38
2023-05-08T18:39:18.495Z,101976.28
2023-05-08T18:41:44.750Z,101986.44
2023-05-08T18:44:11.126Z,101984.56
2023-05-08T18:46:37.483Z,101984.78
2023-05-08T18:49:03.747Z,101992.00
2023-05-08T18:51:29.986Z,101989.31
2023-05-08T18:53:56.223Z,101990.38
2023-05-08T18:56:22.630Z,101986.22
2023-05-08T18:58:49.471Z,101986.22
2023-05-08T19:01:15.800Z,101988.31
2023-05-08T19:03:42.409Z,101993.06
2023-05-08T19:06:08.705Z,101986.63
2023-05-08T19:08:34.979Z,101991.41
2023-05-08T19:11:01.273Z,101992.44
2023-05-08T19:13:27.655Z,101994.09
2023-05-08T19:15:54.218Z,101996.38
2023-05-08T19:18:20.525Z,102004.47
2023-05-08T19:20:46.934Z,102003.00
2023-05-08T19:23:13.239Z,102003.81
2023-05-08T19:25:39.496Z,101993.25
2023-05-08T19:28:05.730Z,101998.63
2023-05-08T19:30:32.169Z,101990.53
2023-05-08T19:32:58.519Z,101987.25
2023-05-08T19:35:24.740Z,101994.47
2023-05-08T19:37:51.076Z,101996.13
2023-05-08T19:40:17.326Z,101991.19
2023-05-08T19:42:43.578Z,101997.38
2023-05-08T19:45:09.828Z,101992.00
2023-05-08T19:47:36.110Z,101991.38
2023-05-08T19:50:02.485Z,101985.78
2023-05-08T19:52:29.031Z,101975.22
2023-05-08T19:54:55.291Z,101981.66
2023-05-08T19:57:21.584Z,101989.72
2023-05-08T19:59:47.898Z,101988.69
2023-05-08T20:02:14.408Z,101989.72
2023-05-08T20:04:54.465Z,101990.75
2023-05-08T20:07:26.902Z,101990.97
2023-05-08T20:09:53.204Z,102000.06
2023-05-08T20:12:19.443Z,101996.94
2023-05-08T20:14:45.690Z,101997.56
2023-05-08T20:17:11.931Z,101993.41
2023-05-08T20:19:38.205Z,101988.88
2023-05-08T20:22:04.909Z,101987.03
2023-05-08T20:24:31.254Z,101984.31
2023-05-08T20:26:57.520Z,101990.94
2023-05-08T20:29:23.794Z,101983.88
2023-05-08T20:31:50.176Z,101986.38
2023-05-08T20:34:16.560Z,101983.88
2023-05-08T20:36:42.919Z,101979.34
2023-05-08T20:39:09.244Z,101975.00
2023-05-08T20:41:35.476Z,101978.69
2023-05-08T20:44:01.752Z,101977.25
2023-05-08T20:46:28.012Z,101979.94
2023-05-08T20:48:54.300Z,101975.41
2023-05-08T20:51:20.541Z,101976.22
2023-05-08T20:53:46.798Z,101970.00
2023-05-08T20:56:13.560Z,101969.16
2023-05-08T20:58:40.693Z,101968.97
2023-05-08T21:01:07.016Z,101976.00
2023-05-08T21:03:33.286Z,101970.63
2023-05-08T21:05:59.563Z,101981.38
2023-05-08T21:08:25.811Z,101983.47
2023-05-08T21:10:52.154Z,101976.44
2023-05-08T21:13:18.462Z,101970.00
2023-05-08T21:15:44.732Z,101973.31
2023-05-08T21:18:11.280Z,101968.78
2023-05-08T21:20:37.537Z,101968.16
2023-05-08T21:23:03.790Z,101965.47
2023-05-08T21:25:30.032Z,101961.94
2023-05-08T21:27:56.328Z,101964.63
2023-05-08T21:30:22.565Z,101962.13
2023-05-08T21:32:48.914Z,101962.97
2023-05-08T21:35:15.358Z,101954.91
2023-05-08T21:37:41.713Z,101962.13
2023-05-08T21:40:07.960Z,101955.91
2023-05-08T21:42:34.204Z,101959.44
2023-05-08T21:45:00.430Z,101951.34
2023-05-08T21:47:26.720Z,101957.78
2023-05-08T21:49:53.043Z,101950.53
2023-05-08T21:52:19.431Z,101955.09
2023-05-08T21:54:45.776Z,101955.91
2023-05-08T21:57:12.038Z,101955.50
2023-05-08T21:59:38.396Z,101964.22
2023-05-08T22:02:04.770Z,101962.34
2023-05-08T22:04:31.096Z,101960.47
2023-05-08T22:06:57.350Z,101961.53
2023-05-08T22:09:23.584Z,101958.38
2023-05-08T22:11:50.177Z,101956.13
2023-05-08T22:14:16.430Z,101962.34
2023-05-08T22:16:42.846Z,101963.38
2023-05-08T22:19:09.278Z,101953.66
2023-05-08T22:21:35.515Z,101955.28
2023-05-08T22:24:01.773Z,101951.75
2023-05-08T22:26:28.041Z,101954.44
2023-05-08T22:28:54.487Z,101956.72
2023-05-08T22:31:20.856Z,101948.47
2023-05-08T22:33:47.351Z,101949.31
2023-05-08T22:36:13.576Z,101951.16
2023-05-08T22:38:39.975Z,101950.94
2023-05-08T22:41:06.275Z,101952.19
2023-05-08T22:43:32.509Z,101955.50
2023-05-08T22:45:58.820Z,101945.56
2023-05-08T22:48:25.191Z,101945.13
2023-05-08T22:50:51.451Z,101942.22
2023-05-08T22:53:17.681Z,101936.84
2023-05-08T22:55:44.030Z,101940.59
2023-05-08T22:58:10.292Z,101938.94
2023-05-08T23:00:36.537Z,101938.53
2023-05-08T23:03:02.873Z,101935.19
2023-05-08T23:05:29.163Z,101941.63
2023-05-08T23:07:55.446Z,101927.13
2023-05-08T23:10:21.718Z,101931.91
2023-05-08T23:12:48.038Z,101932.50
2023-05-08T23:15:14.528Z,101927.31
2023-05-08T23:17:41.049Z,101931.91
2023-05-08T23:20:07.391Z,101927.75
2023-05-08T23:22:33.655Z,101928.75
2023-05-08T23:24:59.876Z,101932.28
2023-05-08T23:27:26.131Z,101924.81
2023-05-08T23:29:52.488Z,101921.72
2023-05-08T23:32:18.732Z,101922.38
2023-05-08T23:34:45.079Z,101927.75
2023-05-08T23:37:11.294Z,101928.75
2023-05-08T23:39:37.572Z,101924.22
2023-05-08T23:42:03.856Z,101924.81
2023-05-08T23:44:30.105Z,101926.91
2023-05-08T23:46:56.373Z,101920.69
2023-05-08T23:49:22.599Z,101916.94
2023-05-08T23:51:48.935Z,101916.13
2023-05-08T23:54:15.213Z,101918.84
2023-05-08T23:56:41.449Z,101923.16
2023-05-08T23:59:08.017Z,101915.72
